»·PEaware :: N5204F L52-L88

N5204F :: L52-L88

FLIGHT INFORMATION

Flight Status: Arrived
Operator: Privately registered:
United States
More flights under this callsign
Pilot: David C. (21027)
Aircraft: CESSNA 172 SKYHAWK
(C172)
More flights by this aircraft type
Origin: L52 Oceano Co
United States
Destination: L88 New Cuyama
United States
More flights between these airports :: More routes between these airports
Route: FELLOWS TO 246 FELLOWS FROM 12
File this flight plan on PilotEdge
Remarks:
Altitude:
(Current/Filed)
7,500ft
Speed:
(Current/Filed)
110kts
Departed: 31-Dec-18 12:01 PM
Arrived: 31-Dec-18 01:10 PM
Distance/Time
Traveled:
47nm/1:09
Distance/Time
To Go:
Arrived

Flight Plot

Page will automatically refresh every two minutes.

Flight plan parsing failed; only flown route is shown


Map Options




Map Legend


Flown Route
Filed Route
Departure Airport
Arrival Airport
Navaid (VOR, NDB)
Fix

Horizontal Profiles

Position Reports

Time Latitude Longitude Heading Altitude Ground
Speed
31-Dec-18 11:51 35.103090 -120.624062 213 18ft 0kts
31-Dec-18 11:52 35.103090 -120.624063 214 18ft 0kts
31-Dec-18 11:53 35.103044 -120.624054 146 18ft 2kts
31-Dec-18 11:54 35.101983 -120.622208 146 18ft 0kts
31-Dec-18 11:55 35.101979 -120.622207 168 18ft 0kts
31-Dec-18 11:56 35.101976 -120.622208 184 18ft 0kts
31-Dec-18 11:57 35.101969 -120.622209 194 18ft 0kts
31-Dec-18 11:58 35.099613 -120.619523 111 18ft 2kts
31-Dec-18 12:00 35.099819 -120.619221 351 18ft 11kts
31-Dec-18 12:01 35.109195 -120.635874 326 629ft 75kts
31-Dec-18 12:02 35.123733 -120.617253 56 1573ft 98kts
31-Dec-18 12:03 35.130235 -120.585521 98 2531ft 98kts
31-Dec-18 12:04 35.105655 -120.572695 179 3229ft 111kts
31-Dec-18 12:05 35.078852 -120.579995 202 4166ft 95kts
31-Dec-18 12:06 35.051358 -120.585678 200 4802ft 113kts
31-Dec-18 12:07 35.024408 -120.577139 119 5539ft 109kts
31-Dec-18 12:08 35.016589 -120.541543 82 6175ft 111kts
31-Dec-18 12:09 35.022093 -120.505830 67 6871ft 106kts
31-Dec-18 12:10 35.026600 -120.469919 80 7508ft 108kts
31-Dec-18 12:11 35.024209 -120.431638 93 7552ft 112kts
31-Dec-18 12:12 35.020262 -120.395620 92 7436ft 105kts
31-Dec-18 12:13 35.015477 -120.360175 93 7346ft 99kts
31-Dec-18 12:14 35.014149 -120.326693 85 7531ft 99kts
31-Dec-18 12:15 35.014633 -120.291803 84 7641ft 102kts
31-Dec-18 12:16 35.010062 -120.257035 89 7674ft 106kts
31-Dec-18 12:17 35.005594 -120.220648 79 7525ft 110kts
31-Dec-18 12:18 35.015796 -120.189571 34 7496ft 93kts
31-Dec-18 12:19 35.029483 -120.162685 81 7580ft 105kts
31-Dec-18 12:19 35.032255 -120.133402 67 7555ft 102kts
31-Dec-18 12:20 35.044962 -120.103091 53 7528ft 97kts
31-Dec-18 12:22 35.049448 -120.085291 84 7518ft 103kts
31-Dec-18 12:22 35.049448 -120.085291 84 7518ft 103kts
31-Dec-18 12:23 35.049448 -120.085291 84 7518ft 103kts
31-Dec-18 12:25 35.049448 -120.085291 84 7518ft 103kts
31-Dec-18 12:25 35.049448 -120.085291 84 7518ft 103kts
31-Dec-18 12:26 35.049448 -120.085291 84 7518ft 103kts
31-Dec-18 12:27 35.049448 -120.085291 84 7518ft 103kts
31-Dec-18 12:28 35.048543 -120.061735 83 7489ft 104kts
31-Dec-18 12:29 35.043410 -120.026752 108 7479ft 106kts
31-Dec-18 12:30 35.029357 -119.992834 116 7240ft 116kts
31-Dec-18 12:31 35.018889 -119.956426 100 6971ft 112kts
31-Dec-18 12:32 35.011241 -119.919201 99 6279ft 118kts
31-Dec-18 12:33 35.003826 -119.879403 102 5370ft 124kts
31-Dec-18 12:34 34.993791 -119.836174 96 3881ft 135kts
31-Dec-18 12:35 34.984366 -119.795754 99 2783ft 111kts
31-Dec-18 12:36 34.980830 -119.760847 94 2479ft 93kts
31-Dec-18 12:37 34.969439 -119.728499 116 2339ft 109kts
31-Dec-18 12:38 34.950558 -119.701772 153 2685ft 112kts
31-Dec-18 12:39 34.924859 -119.705197 229 3185ft 85kts
31-Dec-18 12:40 34.930308 -119.728546 268 3592ft 82kts
31-Dec-18 12:41 34.920847 -119.735595 174 3829ft 97kts
31-Dec-18 12:42 34.920847 -119.735595 174 3829ft 97kts
31-Dec-18 12:43 34.909997 -119.727856 130 3975ft 105kts
31-Dec-18 12:44 34.908182 -119.696076 35 3374ft 91kts
31-Dec-18 12:45 34.911484 -119.693037 16 3212ft 87kts
31-Dec-18 12:46 34.933216 -119.688189 326 2805ft 76kts
31-Dec-18 12:47 34.943364 -119.708672 334 2786ft 63kts
31-Dec-18 12:48 34.942035 -119.691187 124 2335ft 77kts
31-Dec-18 12:49 34.932213 -119.666138 96 2536ft 103kts
31-Dec-18 12:50 34.949383 -119.649345 2 2991ft 85kts
31-Dec-18 12:51 34.967517 -119.654953 266 2981ft 84kts
31-Dec-18 12:52 34.949865 -119.677293 220 2856ft 103kts
31-Dec-18 12:53 34.921908 -119.674203 195 3142ft 95kts
31-Dec-18 12:54 34.897326 -119.686187 256 3566ft 84kts
31-Dec-18 12:55 34.907858 -119.705109 5 3183ft 82kts
31-Dec-18 12:56 34.928929 -119.689610 19 2794ft 83kts
31-Dec-18 12:57 34.943113 -119.703865 301 2875ft 68kts
31-Dec-18 12:58 34.948047 -119.692420 129 2386ft 104kts
31-Dec-18 12:59 34.942606 -119.683352 121 2356ft 103kts
31-Dec-18 13:00 34.942606 -119.683352 121 2356ft 103kts
31-Dec-18 13:01 34.942606 -119.683352 121 2356ft 103kts
31-Dec-18 13:02 34.942606 -119.683352 121 2356ft 103kts
31-Dec-18 13:03 34.938552 -119.672293 101 2557ft 100kts
31-Dec-18 13:04 34.927280 -119.670165 284 2914ft 86kts
31-Dec-18 13:05 34.931491 -119.697576 311 2776ft 79kts
31-Dec-18 13:06 34.949669 -119.687947 93 2715ft 112kts
31-Dec-18 13:07 34.934357 -119.660506 182 2741ft 83kts
31-Dec-18 13:08 34.936508 -119.677050 297 2408ft 57kts
31-Dec-18 13:09 34.940807 -119.687678 290 2207ft 13kts
31-Dec-18 13:10 34.941838 -119.690238 293 2207ft 21kts
31-Dec-18 13:11 34.942244 -119.691009 320 2207ft 11kts
31-Dec-18 13:12 34.942784 -119.690627 121 2207ft 4kts
31-Dec-18 13:13 34.942774 -119.690608 120 2207ft 0kts
31-Dec-18 13:14 34.942774 -119.690608 120 2207ft 0kts
31-Dec-18 13:15 34.942774 -119.690608 120 2207ft 0kts
31-Dec-18 13:16 34.942774 -119.690608 120 2207ft 0kts
31-Dec-18 13:17 34.942774 -119.690608 120 2207ft 0kts

Navigation Log

Ident Type
Flight plan parsing failed, navigation log unavailable